createdAt,value
2022-12-13T01:48:08.749Z,94.96
2022-12-13T01:51:36.915Z,95.07
2022-12-13T01:55:03.178Z,94.79
2022-12-13T01:58:26.711Z,95.01
2022-12-13T02:01:50.327Z,94.48
2022-12-13T02:05:19.744Z,94.60
2022-12-13T02:15:45.865Z,94.28
2022-12-13T02:19:39.899Z,94.08
2022-12-13T02:23:25.280Z,94.51
2022-12-13T02:27:18.100Z,94.53
2022-12-13T02:31:00.077Z,94.59
2022-12-13T02:34:25.413Z,94.14
2022-12-13T02:37:57.354Z,94.01
2022-12-13T02:59:20.179Z,93.81
2022-12-13T03:02:51.531Z,93.90
2022-12-13T03:20:50.022Z,93.48
2022-12-13T03:24:12.654Z,93.39
2022-12-13T03:27:34.677Z,92.94
2022-12-13T03:30:56.877Z,93.21
2022-12-13T03:34:22.796Z,93.22
2022-12-13T03:48:12.587Z,93.82
2022-12-13T03:51:43.551Z,92.56
2022-12-13T03:55:06.331Z,93.24
2022-12-13T03:58:34.936Z,92.89
2022-12-13T04:13:11.740Z,92.57
2022-12-13T04:16:34.045Z,93.15
2022-12-13T04:19:56.168Z,93.07
2022-12-13T04:23:18.475Z,92.54
2022-12-13T04:26:40.635Z,92.58
2022-12-13T04:30:04.224Z,92.75
2022-12-13T04:33:26.788Z,92.70
2022-12-13T04:36:48.849Z,92.54
2022-12-13T04:40:11.974Z,92.68
2022-12-13T04:43:33.779Z,92.30
2022-12-13T04:47:05.322Z,92.67
2022-12-13T04:50:27.618Z,92.49
2022-12-13T04:53:49.805Z,92.45
2022-12-13T04:57:15.336Z,92.51
2022-12-13T05:00:37.221Z,92.53
2022-12-13T05:04:00.453Z,92.29
2022-12-13T05:07:23.038Z,92.04
2022-12-13T05:10:44.814Z,92.69
2022-12-13T05:14:06.981Z,92.13
2022-12-13T05:17:28.651Z,92.11
2022-12-13T05:20:52.328Z,92.56
2022-12-13T05:24:14.393Z,91.91
2022-12-13T05:27:38.485Z,92.12
2022-12-13T05:31:23.598Z,92.11
2022-12-13T05:34:45.765Z,91.49
2022-12-13T05:38:09.011Z,92.02
2022-12-13T05:41:34.506Z,91.28
2022-12-13T05:44:56.448Z,91.83
2022-12-13T05:48:24.473Z,91.61
2022-12-13T09:37:46.176Z,88.17
2022-12-13T09:41:19.585Z,88.67
2022-12-13T09:45:00.986Z,88.76
2022-12-13T09:48:25.914Z,88.18
2022-12-13T09:52:10.124Z,88.31
2022-12-13T09:55:40.284Z,88.20
2022-12-13T09:59:02.874Z,87.64
2022-12-13T10:02:28.858Z,87.75
2022-12-13T10:05:59.201Z,87.77
2022-12-13T10:09:21.965Z,87.55
2022-12-13T10:12:49.361Z,87.54
2022-12-13T10:16:23.316Z,87.70
2022-12-13T10:19:47.544Z,87.99
2022-12-13T10:23:33.278Z,87.72
2022-12-13T10:26:51.479Z,87.62
2022-12-13T10:30:20.635Z,87.21
2022-12-13T10:33:55.892Z,87.31
2022-12-13T10:37:28.906Z,87.71
2022-12-13T10:40:51.142Z,88.22
2022-12-13T10:44:19.998Z,88.02
2022-12-13T10:47:45.630Z,87.56
2022-12-13T10:51:10.810Z,87.87
2022-12-13T10:54:38.521Z,87.46
2022-12-13T10:58:19.696Z,88.32
2022-12-13T11:01:41.966Z,87.74
2022-12-13T11:08:30.360Z,88.11
2022-12-13T11:11:58.723Z,88.35
2022-12-13T11:15:24.409Z,87.91
2022-12-13T11:18:53.472Z,87.04
2022-12-13T11:22:22.569Z,87.54
2022-12-13T11:25:48.797Z,87.75
2022-12-13T11:29:35.958Z,88.43
2022-12-13T11:33:15.843Z,88.94
2022-12-13T11:36:43.135Z,88.88
2022-12-13T11:40:11.709Z,88.87
2022-12-13T11:43:41.080Z,89.07
2022-12-13T11:47:03.250Z,89.29
2022-12-13T11:50:33.971Z,89.02
2022-12-13T11:54:02.222Z,88.81
2022-12-13T11:57:37.200Z,88.84
2022-12-13T12:01:05.454Z,89.33
2022-12-13T12:04:32.855Z,88.81
2022-12-13T12:08:32.453Z,88.43
2022-12-13T12:11:47.506Z,89.07
2022-12-13T12:15:16.794Z,88.79
2022-12-13T12:18:40.369Z,88.59
2022-12-13T12:22:16.262Z,88.68
2022-12-13T12:25:45.716Z,89.26
2022-12-13T12:29:31.933Z,89.10
2022-12-13T12:33:01.457Z,89.44
2022-12-13T12:36:42.079Z,89.38
2022-12-13T12:41:07.080Z,89.80
2022-12-13T12:44:31.500Z,90.34
2022-12-13T12:48:47.928Z,90.57
2022-12-13T12:51:53.286Z,90.72
2022-12-13T12:55:21.710Z,90.76
2022-12-13T12:58:52.454Z,90.45
2022-12-13T13:02:23.315Z,90.44
2022-12-13T13:05:55.797Z,90.88
2022-12-13T13:09:24.878Z,90.90
2022-12-13T13:12:46.771Z,91.10
2022-12-13T13:16:30.770Z,91.36
2022-12-13T13:20:02.583Z,91.01
2022-12-13T13:23:43.813Z,91.07
2022-12-13T13:27:29.453Z,91.52
2022-12-13T13:31:05.565Z,91.06
2022-12-13T13:34:30.408Z,91.42
2022-12-13T13:37:53.072Z,91.06
2022-12-13T13:41:45.643Z,91.63
2022-12-13T13:45:24.699Z,91.44
2022-12-13T13:49:01.769Z,91.09
2022-12-13T13:52:25.727Z,91.38
2022-12-13T13:56:00.128Z,91.27
2022-12-13T13:59:50.849Z,91.23
2022-12-13T14:03:45.684Z,91.01
2022-12-13T14:07:54.633Z,90.78
2022-12-13T14:11:50.748Z,91.00
2022-12-13T14:15:59.979Z,90.61
2022-12-13T14:19:57.566Z,90.83
2022-12-13T14:23:37.110Z,90.58
2022-12-13T14:27:09.139Z,91.64
2022-12-13T14:30:31.231Z,91.88
2022-12-13T14:33:54.527Z,91.39
2022-12-13T14:37:28.433Z,91.39
2022-12-13T14:40:58.764Z,92.04
2022-12-13T14:44:24.239Z,93.10
2022-12-13T14:47:46.348Z,92.31
2022-12-13T14:51:28.107Z,91.80
2022-12-13T14:54:58.327Z,92.11
2022-12-13T14:58:22.478Z,91.84
2022-12-13T15:01:47.727Z,91.80
2022-12-13T15:05:09.894Z,91.98
2022-12-13T15:08:34.637Z,91.97
2022-12-13T15:12:01.354Z,92.31
2022-12-13T15:15:39.519Z,91.80
2022-12-13T15:19:10.870Z,92.26
2022-12-13T15:22:33.072Z,92.20
2022-12-13T15:26:00.571Z,92.16
2022-12-13T15:29:25.403Z,91.31
2022-12-13T15:33:07.984Z,90.98
2022-12-13T15:36:30.398Z,90.71
2022-12-13T15:39:55.840Z,89.56
2022-12-13T15:43:19.876Z,90.06
2022-12-13T15:46:41.984Z,90.32
2022-12-13T15:50:08.680Z,90.35
2022-12-13T15:53:30.682Z,90.80
2022-12-13T15:57:12.406Z,90.39
2022-12-13T16:00:36.480Z,90.96
2022-12-13T16:03:58.820Z,90.80
2022-12-13T16:07:29.599Z,90.81
2022-12-13T16:10:53.469Z,91.56
2022-12-13T16:14:29.566Z,91.77
2022-12-13T16:17:53.572Z,91.94
2022-12-13T16:21:15.721Z,92.00
2022-12-13T16:24:38.942Z,92.31
2022-12-13T16:28:00.692Z,91.89
2022-12-13T16:31:25.323Z,92.01
2022-12-13T16:34:47.052Z,91.56
2022-12-13T16:38:10.758Z,90.78
2022-12-13T16:41:49.456Z,91.12
2022-12-13T16:48:56.344Z,90.90
2022-12-13T16:52:20.689Z,90.92
2022-12-13T16:55:45.774Z,91.06
2022-12-13T16:59:24.934Z,90.80
2022-12-13T17:02:47.481Z,90.71
2022-12-13T17:06:11.912Z,90.57
2022-12-13T17:09:36.181Z,90.73
2022-12-13T17:12:57.846Z,91.28
2022-12-13T17:16:21.516Z,91.16
2022-12-13T17:19:43.220Z,91.63
2022-12-13T17:23:06.794Z,90.92
2022-12-13T17:26:29.926Z,91.03
2022-12-13T17:29:51.986Z,90.28
2022-12-13T17:33:15.508Z,91.49
2022-12-13T17:36:40.577Z,90.79
2022-12-13T17:40:07.256Z,90.85
2022-12-13T17:43:34.863Z,90.96
2022-12-13T17:46:57.545Z,91.30
2022-12-13T17:50:20.644Z,91.28
2022-12-13T17:53:43.911Z,91.15
2022-12-13T17:57:05.723Z,91.01
2022-12-13T18:00:27.661Z,90.88
2022-12-13T18:03:50.338Z,90.65
2022-12-13T18:07:13.688Z,91.08
2022-12-13T18:10:39.045Z,90.63
2022-12-13T18:14:00.406Z,90.37
2022-12-13T18:17:22.619Z,90.00
2022-12-13T18:20:48.951Z,90.21
2022-12-13T18:24:15.099Z,89.86
2022-12-13T18:27:37.136Z,89.90
2022-12-13T18:30:59.484Z,90.05
2022-12-13T18:34:21.470Z,90.45
2022-12-13T18:37:45.601Z,90.07
2022-12-13T18:41:09.880Z,90.08
2022-12-13T18:44:31.643Z,90.64
2022-12-13T18:47:53.475Z,90.44
2022-12-13T18:51:15.363Z,90.03
2022-12-13T18:54:37.230Z,89.83
2022-12-13T18:58:00.650Z,89.87
2022-12-13T19:01:26.967Z,90.39
2022-12-13T19:04:55.405Z,90.07
2022-12-13T19:08:17.514Z,90.13
2022-12-13T19:11:39.654Z,90.10
2022-12-13T19:15:06.875Z,90.39
2022-12-13T19:18:29.148Z,89.79
2022-12-13T19:21:50.996Z,89.98
2022-12-13T19:25:13.845Z,89.31
2022-12-13T19:28:36.483Z,89.30
2022-12-13T19:32:00.804Z,89.06
2022-12-13T19:35:23.075Z,88.71
2022-12-13T19:38:44.682Z,88.44
2022-12-13T19:42:06.670Z,88.17
2022-12-13T19:45:28.956Z,87.99
2022-12-13T19:48:52.773Z,88.16
2022-12-13T19:52:14.450Z,87.94
2022-12-13T19:55:36.599Z,87.70
2022-12-13T19:58:58.578Z,87.47
2022-12-13T20:02:20.527Z,87.45
2022-12-13T20:05:45.733Z,87.68
2022-12-13T20:09:07.755Z,87.54
2022-12-13T20:12:29.700Z,87.50
2022-12-13T20:15:52.052Z,88.04
2022-12-13T20:19:16.173Z,87.92
2022-12-13T20:22:39.298Z,88.25
2022-12-13T20:26:03.535Z,87.86
2022-12-13T20:29:25.788Z,87.81
2022-12-13T20:32:47.854Z,87.86
2022-12-13T20:36:27.884Z,87.35
2022-12-13T20:39:51.573Z,87.91
2022-12-13T20:43:13.283Z,88.00
2022-12-13T20:46:35.836Z,88.47
2022-12-13T20:49:57.507Z,88.42
2022-12-13T20:53:24.698Z,88.10
2022-12-13T20:56:47.979Z,88.40
2022-12-13T21:00:11.037Z,88.67
2022-12-13T21:03:34.003Z,88.48
2022-12-13T21:06:55.713Z,88.11
2022-12-13T21:10:17.880Z,88.05
2022-12-13T21:13:40.973Z,88.10
2022-12-13T21:17:04.975Z,88.10
2022-12-13T21:20:27.115Z,88.10
2022-12-13T21:23:49.259Z,88.22
2022-12-13T21:27:10.983Z,88.31
2022-12-13T21:30:34.156Z,88.79
2022-12-13T21:33:57.890Z,88.78
2022-12-13T21:37:19.591Z,88.39
2022-12-13T21:40:45.946Z,88.92
2022-12-13T21:44:07.541Z,88.93
2022-12-13T21:47:31.227Z,88.73
2022-12-13T21:50:53.198Z,89.29
2022-12-13T21:54:14.660Z,89.41
2022-12-13T21:57:53.571Z,89.22
2022-12-13T22:01:15.777Z,89.67
2022-12-13T22:04:40.924Z,89.50
2022-12-13T22:08:02.650Z,89.47
2022-12-13T22:11:24.473Z,90.16
2022-12-13T22:14:46.827Z,90.10
2022-12-13T22:18:08.676Z,90.73
2022-12-13T22:21:32.511Z,90.80
2022-12-13T22:24:54.250Z,90.88
2022-12-13T22:28:16.375Z,91.47
2022-12-13T22:31:38.358Z,90.84
2022-12-13T22:35:00.487Z,91.13
2022-12-13T22:38:23.874Z,91.18
2022-12-13T22:41:45.811Z,91.90
2022-12-13T22:45:08.625Z,91.74
2022-12-13T22:48:30.473Z,91.70
2022-12-13T22:51:52.383Z,91.63
2022-12-13T22:55:16.698Z,90.88
2022-12-13T22:58:45.713Z,91.04
